sensor_id;sensor_type;location;lat;lon;timestamp;P1;durP1;ratioP1;P2;durP2;ratioP2
49416;SDS011;35290;39.550;8.786;2022-12-11T00:01:53;16.90;;;2.85;;
49416;SDS011;35290;39.550;8.786;2022-12-11T00:04:18;15.07;;;2.42;;
49416;SDS011;35290;39.550;8.786;2022-12-11T00:06:44;13.35;;;2.38;;
49416;SDS011;35290;39.550;8.786;2022-12-11T00:09:13;17.75;;;3.95;;
49416;SDS011;35290;39.550;8.786;2022-12-11T00:11:41;16.85;;;2.58;;
49416;SDS011;35290;39.550;8.786;2022-12-11T00:14:07;9.38;;;2.35;;
49416;SDS011;35290;39.550;8.786;2022-12-11T00:16:32;19.35;;;2.97;;
49416;SDS011;35290;39.550;8.786;2022-12-11T00:18:58;13.57;;;2.60;;
49416;SDS011;35290;39.550;8.786;2022-12-11T00:21:23;11.18;;;2.25;;
49416;SDS011;35290;39.550;8.786;2022-12-11T00:23:49;15.40;;;2.47;;
49416;SDS011;35290;39.550;8.786;2022-12-11T00:26:15;16.98;;;3.13;;
49416;SDS011;35290;39.550;8.786;2022-12-11T00:28:41;19.48;;;3.35;;
49416;SDS011;35290;39.550;8.786;2022-12-11T00:31:08;12.63;;;2.85;;
49416;SDS011;35290;39.550;8.786;2022-12-11T00:33:39;19.38;;;2.65;;
49416;SDS011;35290;39.550;8.786;2022-12-11T00:36:12;11.00;;;2.13;;
49416;SDS011;35290;39.550;8.786;2022-12-11T00:38:42;13.35;;;2.40;;
49416;SDS011;35290;39.550;8.786;2022-12-11T00:41:08;14.25;;;1.95;;
49416;SDS011;35290;39.550;8.786;2022-12-11T00:43:34;12.32;;;2.40;;
49416;SDS011;35290;39.550;8.786;2022-12-11T00:46:00;16.38;;;2.63;;
49416;SDS011;35290;39.550;8.786;2022-12-11T00:48:25;12.75;;;2.00;;
49416;SDS011;35290;39.550;8.786;2022-12-11T00:50:51;10.75;;;1.77;;
49416;SDS011;35290;39.550;8.786;2022-12-11T00:53:16;8.10;;;1.48;;
49416;SDS011;35290;39.550;8.786;2022-12-11T00:55:42;11.73;;;2.22;;
49416;SDS011;35290;39.550;8.786;2022-12-11T00:58:08;19.40;;;2.75;;
49416;SDS011;35290;39.550;8.786;2022-12-11T01:00:34;16.02;;;2.83;;
49416;SDS011;35290;39.550;8.786;2022-12-11T01:03:00;11.07;;;2.50;;
49416;SDS011;35290;39.550;8.786;2022-12-11T01:05:25;16.23;;;2.58;;
49416;SDS011;35290;39.550;8.786;2022-12-11T01:07:51;14.20;;;2.13;;
49416;SDS011;35290;39.550;8.786;2022-12-11T01:10:16;17.05;;;2.78;;
49416;SDS011;35290;39.550;8.786;2022-12-11T01:12:49;17.88;;;4.25;;
49416;SDS011;35290;39.550;8.786;2022-12-11T01:15:15;15.90;;;2.47;;
49416;SDS011;35290;39.550;8.786;2022-12-11T01:17:40;10.32;;;2.65;;
49416;SDS011;35290;39.550;8.786;2022-12-11T01:20:06;14.32;;;2.50;;
49416;SDS011;35290;39.550;8.786;2022-12-11T01:22:32;9.13;;;1.85;;
49416;SDS011;35290;39.550;8.786;2022-12-11T01:24:57;12.02;;;2.47;;
49416;SDS011;35290;39.550;8.786;2022-12-11T01:27:23;16.60;;;2.60;;
49416;SDS011;35290;39.550;8.786;2022-12-11T01:29:48;9.90;;;1.90;;
49416;SDS011;35290;39.550;8.786;2022-12-11T01:32:14;14.10;;;2.22;;
49416;SDS011;35290;39.550;8.786;2022-12-11T01:34:40;13.02;;;2.10;;
49416;SDS011;35290;39.550;8.786;2022-12-11T01:37:05;18.58;;;2.50;;
49416;SDS011;35290;39.550;8.786;2022-12-11T01:39:31;13.10;;;1.90;;
49416;SDS011;35290;39.550;8.786;2022-12-11T01:41:57;13.13;;;2.17;;
49416;SDS011;35290;39.550;8.786;2022-12-11T01:46:49;14.93;;;1.92;;
49416;SDS011;35290;39.550;8.786;2022-12-11T01:49:15;12.77;;;2.40;;
49416;SDS011;35290;39.550;8.786;2022-12-11T01:51:50;14.30;;;2.05;;
49416;SDS011;35290;39.550;8.786;2022-12-11T01:54:19;11.68;;;2.35;;
49416;SDS011;35290;39.550;8.786;2022-12-11T01:56:46;13.52;;;2.53;;
49416;SDS011;35290;39.550;8.786;2022-12-11T01:59:13;11.27;;;2.08;;
49416;SDS011;35290;39.550;8.786;2022-12-11T02:01:42;13.10;;;1.85;;
49416;SDS011;35290;39.550;8.786;2022-12-11T02:04:11;12.63;;;2.20;;
49416;SDS011;35290;39.550;8.786;2022-12-11T02:06:38;12.30;;;2.50;;
49416;SDS011;35290;39.550;8.786;2022-12-11T02:09:06;15.35;;;2.40;;
49416;SDS011;35290;39.550;8.786;2022-12-11T02:20:14;14.60;;;2.30;;
49416;SDS011;35290;39.550;8.786;2022-12-11T02:30:51;15.32;;;2.67;;
49416;SDS011;35290;39.550;8.786;2022-12-11T02:33:40;16.55;;;2.50;;
49416;SDS011;35290;39.550;8.786;2022-12-11T02:36:15;14.98;;;2.13;;
49416;SDS011;35290;39.550;8.786;2022-12-11T02:38:41;10.88;;;2.00;;
49416;SDS011;35290;39.550;8.786;2022-12-11T02:41:07;10.93;;;2.92;;
49416;SDS011;35290;39.550;8.786;2022-12-11T02:43:34;12.10;;;2.08;;
49416;SDS011;35290;39.550;8.786;2022-12-11T02:46:01;14.32;;;2.50;;
49416;SDS011;35290;39.550;8.786;2022-12-11T02:48:27;13.93;;;2.00;;
49416;SDS011;35290;39.550;8.786;2022-12-11T02:50:55;16.10;;;2.80;;
49416;SDS011;35290;39.550;8.786;2022-12-11T02:53:22;18.95;;;2.22;;
49416;SDS011;35290;39.550;8.786;2022-12-11T02:55:51;10.90;;;2.05;;
49416;SDS011;35290;39.550;8.786;2022-12-11T02:58:21;14.77;;;2.00;;
49416;SDS011;35290;39.550;8.786;2022-12-11T03:00:48;14.55;;;1.70;;
49416;SDS011;35290;39.550;8.786;2022-12-11T03:03:14;7.18;;;1.58;;
49416;SDS011;35290;39.550;8.786;2022-12-11T03:05:40;16.02;;;2.03;;
49416;SDS011;35290;39.550;8.786;2022-12-11T03:08:06;12.85;;;1.83;;
49416;SDS011;35290;39.550;8.786;2022-12-11T03:10:32;11.93;;;1.85;;
49416;SDS011;35290;39.550;8.786;2022-12-11T03:12:57;14.07;;;2.40;;
49416;SDS011;35290;39.550;8.786;2022-12-11T03:16:10;12.68;;;2.42;;
49416;SDS011;35290;39.550;8.786;2022-12-11T03:18:14;26.45;;;3.25;;
49416;SDS011;35290;39.550;8.786;2022-12-11T03:21:21;10.73;;;1.85;;
49416;SDS011;35290;39.550;8.786;2022-12-11T03:23:59;10.82;;;2.55;;
49416;SDS011;35290;39.550;8.786;2022-12-11T03:26:35;9.85;;;2.03;;
49416;SDS011;35290;39.550;8.786;2022-12-11T03:29:10;12.73;;;2.03;;
49416;SDS011;35290;39.550;8.786;2022-12-11T03:32:15;13.07;;;2.10;;
49416;SDS011;35290;39.550;8.786;2022-12-11T03:34:58;11.82;;;1.83;;
49416;SDS011;35290;39.550;8.786;2022-12-11T03:37:26;14.38;;;2.60;;
49416;SDS011;35290;39.550;8.786;2022-12-11T03:39:55;12.93;;;1.90;;
49416;SDS011;35290;39.550;8.786;2022-12-11T03:42:23;18.85;;;2.17;;
49416;SDS011;35290;39.550;8.786;2022-12-11T03:44:49;12.95;;;2.05;;
49416;SDS011;35290;39.550;8.786;2022-12-11T03:47:17;19.60;;;3.45;;
49416;SDS011;35290;39.550;8.786;2022-12-11T03:49:44;10.88;;;2.10;;
49416;SDS011;35290;39.550;8.786;2022-12-11T03:52:10;13.60;;;2.40;;
49416;SDS011;35290;39.550;8.786;2022-12-11T03:54:37;11.32;;;2.00;;
49416;SDS011;35290;39.550;8.786;2022-12-11T03:57:04;11.85;;;2.05;;
49416;SDS011;35290;39.550;8.786;2022-12-11T03:59:31;16.23;;;2.33;;
49416;SDS011;35290;39.550;8.786;2022-12-11T04:01:57;12.88;;;2.22;;
49416;SDS011;35290;39.550;8.786;2022-12-11T04:04:23;9.57;;;1.50;;
49416;SDS011;35290;39.550;8.786;2022-12-11T04:06:48;16.30;;;3.13;;
49416;SDS011;35290;39.550;8.786;2022-12-11T04:09:13;8.52;;;1.65;;
49416;SDS011;35290;39.550;8.786;2022-12-11T04:11:39;10.18;;;2.15;;
49416;SDS011;35290;39.550;8.786;2022-12-11T04:14:08;13.40;;;1.98;;
49416;SDS011;35290;39.550;8.786;2022-12-11T04:16:54;14.15;;;2.10;;
49416;SDS011;35290;39.550;8.786;2022-12-11T04:19:20;15.48;;;1.90;;
49416;SDS011;35290;39.550;8.786;2022-12-11T04:22:04;8.07;;;1.52;;
49416;SDS011;35290;39.550;8.786;2022-12-11T04:24:49;15.15;;;2.40;;
49416;SDS011;35290;39.550;8.786;2022-12-11T04:27:16;12.18;;;2.13;;
49416;SDS011;35290;39.550;8.786;2022-12-11T04:30:16;7.65;;;1.70;;
49416;SDS011;35290;39.550;8.786;2022-12-11T04:32:46;12.00;;;2.15;;
49416;SDS011;35290;39.550;8.786;2022-12-11T04:35:12;11.10;;;2.17;;
49416;SDS011;35290;39.550;8.786;2022-12-11T04:37:38;5.40;;;1.63;;
49416;SDS011;35290;39.550;8.786;2022-12-11T04:40:05;6.93;;;2.25;;
49416;SDS011;35290;39.550;8.786;2022-12-11T04:42:32;13.75;;;1.90;;
49416;SDS011;35290;39.550;8.786;2022-12-11T04:44:58;12.35;;;3.00;;
49416;SDS011;35290;39.550;8.786;2022-12-11T04:47:23;15.85;;;2.35;;
49416;SDS011;35290;39.550;8.786;2022-12-11T04:49:49;14.32;;;2.10;;
49416;SDS011;35290;39.550;8.786;2022-12-11T04:52:14;14.30;;;2.40;;
49416;SDS011;35290;39.550;8.786;2022-12-11T04:54:41;7.70;;;1.77;;
49416;SDS011;35290;39.550;8.786;2022-12-11T04:57:07;7.55;;;1.70;;
49416;SDS011;35290;39.550;8.786;2022-12-11T04:59:32;11.43;;;2.10;;
49416;SDS011;35290;39.550;8.786;2022-12-11T05:01:58;15.15;;;2.13;;
49416;SDS011;35290;39.550;8.786;2022-12-11T05:04:24;11.40;;;1.73;;
49416;SDS011;35290;39.550;8.786;2022-12-11T05:06:49;15.35;;;2.00;;
49416;SDS011;35290;39.550;8.786;2022-12-11T05:09:15;15.23;;;2.20;;
49416;SDS011;35290;39.550;8.786;2022-12-11T05:11:41;6.75;;;1.83;;
49416;SDS011;35290;39.550;8.786;2022-12-11T05:14:07;11.95;;;2.33;;
49416;SDS011;35290;39.550;8.786;2022-12-11T05:16:32;15.70;;;2.40;;
49416;SDS011;35290;39.550;8.786;2022-12-11T05:18:58;13.35;;;1.98;;
49416;SDS011;35290;39.550;8.786;2022-12-11T05:21:23;8.95;;;1.83;;
49416;SDS011;35290;39.550;8.786;2022-12-11T05:23:49;8.55;;;1.55;;
49416;SDS011;35290;39.550;8.786;2022-12-11T05:26:16;10.65;;;1.90;;
49416;SDS011;35290;39.550;8.786;2022-12-11T05:28:43;10.52;;;1.98;;
49416;SDS011;35290;39.550;8.786;2022-12-11T05:33:41;8.32;;;1.63;;
49416;SDS011;35290;39.550;8.786;2022-12-11T05:36:08;10.65;;;1.90;;
49416;SDS011;35290;39.550;8.786;2022-12-11T05:41:07;12.20;;;2.35;;
49416;SDS011;35290;39.550;8.786;2022-12-11T05:43:34;9.30;;;1.75;;
49416;SDS011;35290;39.550;8.786;2022-12-11T05:46:04;9.48;;;2.22;;
49416;SDS011;35290;39.550;8.786;2022-12-11T05:48:31;11.50;;;2.00;;
49416;SDS011;35290;39.550;8.786;2022-12-11T05:50:57;13.55;;;2.00;;
49416;SDS011;35290;39.550;8.786;2022-12-11T05:53:23;8.07;;;2.10;;
49416;SDS011;35290;39.550;8.786;2022-12-11T05:55:49;8.40;;;1.85;;
49416;SDS011;35290;39.550;8.786;2022-12-11T05:58:14;8.98;;;1.65;;
49416;SDS011;35290;39.550;8.786;2022-12-11T06:00:40;8.27;;;1.67;;
49416;SDS011;35290;39.550;8.786;2022-12-11T06:03:06;9.60;;;1.60;;
49416;SDS011;35290;39.550;8.786;2022-12-11T06:05:36;12.35;;;2.03;;
49416;SDS011;35290;39.550;8.786;2022-12-11T06:08:02;11.70;;;2.08;;
49416;SDS011;35290;39.550;8.786;2022-12-11T06:10:27;12.38;;;2.85;;
49416;SDS011;35290;39.550;8.786;2022-12-11T06:12:53;11.23;;;2.22;;
49416;SDS011;35290;39.550;8.786;2022-12-11T06:15:18;14.65;;;2.25;;
49416;SDS011;35290;39.550;8.786;2022-12-11T06:17:44;10.43;;;2.30;;
49416;SDS011;35290;39.550;8.786;2022-12-11T06:20:09;9.93;;;1.63;;
49416;SDS011;35290;39.550;8.786;2022-12-11T06:22:35;11.07;;;1.92;;
49416;SDS011;35290;39.550;8.786;2022-12-11T06:25:00;9.88;;;1.90;;
49416;SDS011;35290;39.550;8.786;2022-12-11T06:27:26;12.70;;;2.15;;
49416;SDS011;35290;39.550;8.786;2022-12-11T06:29:51;14.07;;;1.85;;
49416;SDS011;35290;39.550;8.786;2022-12-11T06:32:17;12.48;;;2.17;;
49416;SDS011;35290;39.550;8.786;2022-12-11T06:34:42;10.55;;;1.85;;
49416;SDS011;35290;39.550;8.786;2022-12-11T06:37:08;8.85;;;1.95;;
49416;SDS011;35290;39.550;8.786;2022-12-11T06:39:33;9.10;;;1.65;;
49416;SDS011;35290;39.550;8.786;2022-12-11T06:41:59;13.20;;;2.10;;
49416;SDS011;35290;39.550;8.786;2022-12-11T06:44:24;11.18;;;2.10;;
49416;SDS011;35290;39.550;8.786;2022-12-11T06:46:50;18.73;;;3.92;;
49416;SDS011;35290;39.550;8.786;2022-12-11T06:49:15;8.90;;;2.20;;
49416;SDS011;35290;39.550;8.786;2022-12-11T06:51:41;8.40;;;2.60;;
49416;SDS011;35290;39.550;8.786;2022-12-11T06:54:06;14.45;;;2.92;;
49416;SDS011;35290;39.550;8.786;2022-12-11T06:56:32;16.40;;;3.50;;
49416;SDS011;35290;39.550;8.786;2022-12-11T06:58:58;13.98;;;3.13;;
49416;SDS011;35290;39.550;8.786;2022-12-11T07:01:25;12.70;;;3.08;;
49416;SDS011;35290;39.550;8.786;2022-12-11T07:03:55;14.20;;;2.70;;
49416;SDS011;35290;39.550;8.786;2022-12-11T07:06:24;9.57;;;2.13;;
49416;SDS011;35290;39.550;8.786;2022-12-11T07:08:51;12.63;;;2.10;;
49416;SDS011;35290;39.550;8.786;2022-12-11T07:11:17;11.50;;;2.40;;
49416;SDS011;35290;39.550;8.786;2022-12-11T07:13:44;13.93;;;2.40;;
49416;SDS011;35290;39.550;8.786;2022-12-11T07:16:10;8.70;;;2.17;;
49416;SDS011;35290;39.550;8.786;2022-12-11T07:18:37;12.45;;;2.80;;
49416;SDS011;35290;39.550;8.786;2022-12-11T07:21:11;12.45;;;2.95;;
49416;SDS011;35290;39.550;8.786;2022-12-11T07:23:43;16.55;;;2.67;;
49416;SDS011;35290;39.550;8.786;2022-12-11T07:26:10;14.52;;;3.22;;
49416;SDS011;35290;39.550;8.786;2022-12-11T07:28:37;15.95;;;4.15;;
49416;SDS011;35290;39.550;8.786;2022-12-11T07:31:25;11.27;;;4.10;;
49416;SDS011;35290;39.550;8.786;2022-12-11T07:33:57;16.85;;;3.55;;
49416;SDS011;35290;39.550;8.786;2022-12-11T07:36:23;14.57;;;2.90;;
49416;SDS011;35290;39.550;8.786;2022-12-11T07:38:49;13.43;;;2.70;;
49416;SDS011;35290;39.550;8.786;2022-12-11T07:41:15;9.90;;;2.05;;
49416;SDS011;35290;39.550;8.786;2022-12-11T07:43:41;11.30;;;2.42;;
49416;SDS011;35290;39.550;8.786;2022-12-11T07:46:09;12.68;;;2.70;;
49416;SDS011;35290;39.550;8.786;2022-12-11T07:48:39;14.32;;;3.15;;
49416;SDS011;35290;39.550;8.786;2022-12-11T07:51:18;9.93;;;1.95;;
49416;SDS011;35290;39.550;8.786;2022-12-11T07:53:47;8.73;;;2.80;;
49416;SDS011;35290;39.550;8.786;2022-12-11T07:56:14;13.15;;;3.03;;
49416;SDS011;35290;39.550;8.786;2022-12-11T07:58:40;11.50;;;2.70;;
49416;SDS011;35290;39.550;8.786;2022-12-11T08:01:25;9.15;;;2.80;;
49416;SDS011;35290;39.550;8.786;2022-12-11T08:03:51;13.82;;;2.85;;
49416;SDS011;35290;39.550;8.786;2022-12-11T08:06:18;9.93;;;2.28;;
49416;SDS011;35290;39.550;8.786;2022-12-11T08:08:45;9.73;;;2.05;;
49416;SDS011;35290;39.550;8.786;2022-12-11T08:11:12;10.00;;;2.38;;
49416;SDS011;35290;39.550;8.786;2022-12-11T08:13:38;10.35;;;2.13;;
49416;SDS011;35290;39.550;8.786;2022-12-11T08:16:05;13.38;;;2.50;;
49416;SDS011;35290;39.550;8.786;2022-12-11T08:18:33;9.93;;;2.80;;
49416;SDS011;35290;39.550;8.786;2022-12-11T08:21:03;7.88;;;2.40;;
49416;SDS011;35290;39.550;8.786;2022-12-11T08:23:32;15.00;;;3.47;;
49416;SDS011;35290;39.550;8.786;2022-12-11T08:25:58;8.25;;;2.13;;
49416;SDS011;35290;39.550;8.786;2022-12-11T08:28:23;9.30;;;2.05;;
49416;SDS011;35290;39.550;8.786;2022-12-11T08:30:49;8.80;;;2.90;;
49416;SDS011;35290;39.550;8.786;2022-12-11T08:33:14;7.00;;;2.83;;
49416;SDS011;35290;39.550;8.786;2022-12-11T08:35:41;13.55;;;2.92;;
49416;SDS011;35290;39.550;8.786;2022-12-11T08:38:08;10.90;;;2.95;;
49416;SDS011;35290;39.550;8.786;2022-12-11T08:40:33;14.10;;;2.40;;
49416;SDS011;35290;39.550;8.786;2022-12-11T08:42:59;11.90;;;3.13;;
49416;SDS011;35290;39.550;8.786;2022-12-11T08:45:24;14.98;;;2.88;;
49416;SDS011;35290;39.550;8.786;2022-12-11T08:47:51;10.38;;;2.80;;
49416;SDS011;35290;39.550;8.786;2022-12-11T08:50:18;15.18;;;3.25;;
49416;SDS011;35290;39.550;8.786;2022-12-11T08:52:44;14.57;;;3.15;;
49416;SDS011;35290;39.550;8.786;2022-12-11T08:55:09;10.32;;;3.42;;
49416;SDS011;35290;39.550;8.786;2022-12-11T08:57:35;10.05;;;2.67;;
49416;SDS011;35290;39.550;8.786;2022-12-11T09:00:03;16.05;;;3.50;;
49416;SDS011;35290;39.550;8.786;2022-12-11T09:02:30;15.32;;;3.13;;
49416;SDS011;35290;39.550;8.786;2022-12-11T09:04:56;12.73;;;3.20;;
49416;SDS011;35290;39.550;8.786;2022-12-11T09:07:21;8.07;;;2.80;;
49416;SDS011;35290;39.550;8.786;2022-12-11T09:09:47;15.13;;;2.88;;
49416;SDS011;35290;39.550;8.786;2022-12-11T09:12:12;10.18;;;1.95;;
49416;SDS011;35290;39.550;8.786;2022-12-11T09:14:38;12.90;;;2.20;;
49416;SDS011;35290;39.550;8.786;2022-12-11T09:17:03;9.02;;;2.03;;
49416;SDS011;35290;39.550;8.786;2022-12-11T09:19:29;11.50;;;2.72;;
49416;SDS011;35290;39.550;8.786;2022-12-11T09:21:55;9.02;;;2.17;;
49416;SDS011;35290;39.550;8.786;2022-12-11T09:24:20;12.75;;;2.55;;
49416;SDS011;35290;39.550;8.786;2022-12-11T09:26:46;7.00;;;2.40;;
49416;SDS011;35290;39.550;8.786;2022-12-11T09:29:12;11.75;;;3.08;;
49416;SDS011;35290;39.550;8.786;2022-12-11T09:31:37;14.73;;;2.15;;
49416;SDS011;35290;39.550;8.786;2022-12-11T09:34:07;9.25;;;2.15;;
49416;SDS011;35290;39.550;8.786;2022-12-11T09:36:33;11.75;;;2.75;;
49416;SDS011;35290;39.550;8.786;2022-12-11T09:38:59;10.85;;;2.75;;
49416;SDS011;35290;39.550;8.786;2022-12-11T09:41:36;11.43;;;5.45;;
49416;SDS011;35290;39.550;8.786;2022-12-11T09:52:33;13.18;;;3.00;;
49416;SDS011;35290;39.550;8.786;2022-12-11T09:55:02;9.10;;;2.90;;
49416;SDS011;35290;39.550;8.786;2022-12-11T10:02:42;13.57;;;2.25;;
49416;SDS011;35290;39.550;8.786;2022-12-11T10:05:29;9.85;;;2.30;;
49416;SDS011;35290;39.550;8.786;2022-12-11T10:08:05;13.10;;;1.90;;
49416;SDS011;35290;39.550;8.786;2022-12-11T10:15:53;8.50;;;2.03;;
49416;SDS011;35290;39.550;8.786;2022-12-11T10:18:24;9.77;;;2.92;;
49416;SDS011;35290;39.550;8.786;2022-12-11T10:20:51;5.25;;;1.20;;
49416;SDS011;35290;39.550;8.786;2022-12-11T10:23:18;11.27;;;2.50;;
49416;SDS011;35290;39.550;8.786;2022-12-11T10:25:53;8.93;;;1.85;;
49416;SDS011;35290;39.550;8.786;2022-12-11T10:28:26;10.07;;;2.20;;
49416;SDS011;35290;39.550;8.786;2022-12-11T10:31:11;8.38;;;2.97;;
49416;SDS011;35290;39.550;8.786;2022-12-11T10:33:46;13.45;;;4.28;;
49416;SDS011;35290;39.550;8.786;2022-12-11T10:36:18;19.75;;;9.57;;
49416;SDS011;35290;39.550;8.786;2022-12-11T10:38:45;19.77;;;6.75;;
49416;SDS011;35290;39.550;8.786;2022-12-11T10:41:13;17.95;;;7.45;;
49416;SDS011;35290;39.550;8.786;2022-12-11T10:43:42;28.85;;;12.15;;
49416;SDS011;35290;39.550;8.786;2022-12-11T10:46:14;22.80;;;11.50;;
49416;SDS011;35290;39.550;8.786;2022-12-11T10:48:48;29.83;;;13.48;;
49416;SDS011;35290;39.550;8.786;2022-12-11T10:51:17;14.00;;;2.92;;
49416;SDS011;35290;39.550;8.786;2022-12-11T10:53:47;13.85;;;2.95;;
49416;SDS011;35290;39.550;8.786;2022-12-11T10:56:14;17.17;;;5.67;;
49416;SDS011;35290;39.550;8.786;2022-12-11T10:58:46;14.38;;;4.72;;
49416;SDS011;35290;39.550;8.786;2022-12-11T11:01:14;15.38;;;5.15;;
49416;SDS011;35290;39.550;8.786;2022-12-11T11:04:03;12.27;;;2.85;;
49416;SDS011;35290;39.550;8.786;2022-12-11T11:06:27;19.02;;;5.07;;
49416;SDS011;35290;39.550;8.786;2022-12-11T11:08:54;17.23;;;5.05;;
49416;SDS011;35290;39.550;8.786;2022-12-11T11:11:22;14.20;;;3.38;;
49416;SDS011;35290;39.550;8.786;2022-12-11T11:16:44;12.23;;;3.03;;
49416;SDS011;35290;39.550;8.786;2022-12-11T11:19:16;8.38;;;2.63;;
49416;SDS011;35290;39.550;8.786;2022-12-11T11:21:48;13.48;;;3.95;;
49416;SDS011;35290;39.550;8.786;2022-12-11T11:24:23;18.20;;;6.15;;
49416;SDS011;35290;39.550;8.786;2022-12-11T11:27:18;15.77;;;4.20;;
49416;SDS011;35290;39.550;8.786;2022-12-11T11:30:00;13.45;;;4.80;;
49416;SDS011;35290;39.550;8.786;2022-12-11T11:35:25;18.05;;;4.28;;
49416;SDS011;35290;39.550;8.786;2022-12-11T11:38:03;9.38;;;2.60;;
49416;SDS011;35290;39.550;8.786;2022-12-11T11:40:41;14.73;;;2.85;;
49416;SDS011;35290;39.550;8.786;2022-12-11T11:45:52;12.35;;;3.10;;
49416;SDS011;35290;39.550;8.786;2022-12-11T11:51:13;9.10;;;3.60;;
49416;SDS011;35290;39.550;8.786;2022-12-11T11:53:39;10.45;;;3.25;;
49416;SDS011;35290;39.550;8.786;2022-12-11T11:58:56;5.28;;;2.35;;
49416;SDS011;35290;39.550;8.786;2022-12-11T12:01:55;12.85;;;2.80;;
49416;SDS011;35290;39.550;8.786;2022-12-11T12:04:21;13.68;;;2.85;;
49416;SDS011;35290;39.550;8.786;2022-12-11T12:07:07;9.68;;;2.20;;
49416;SDS011;35290;39.550;8.786;2022-12-11T12:17:54;17.20;;;6.38;;
49416;SDS011;35290;39.550;8.786;2022-12-11T12:20:17;16.30;;;6.22;;
49416;SDS011;35290;39.550;8.786;2022-12-11T12:23:02;13.43;;;4.22;;
49416;SDS011;35290;39.550;8.786;2022-12-11T12:25:40;16.23;;;5.07;;
49416;SDS011;35290;39.550;8.786;2022-12-11T12:28:27;11.15;;;3.65;;
49416;SDS011;35290;39.550;8.786;2022-12-11T12:31:08;13.57;;;2.72;;
49416;SDS011;35290;39.550;8.786;2022-12-11T12:34:02;9.93;;;2.55;;
49416;SDS011;35290;39.550;8.786;2022-12-11T12:36:53;11.55;;;2.22;;
49416;SDS011;35290;39.550;8.786;2022-12-11T12:44:53;10.55;;;3.28;;
49416;SDS011;35290;39.550;8.786;2022-12-11T12:47:23;11.95;;;3.15;;
49416;SDS011;35290;39.550;8.786;2022-12-11T12:49:51;9.40;;;2.17;;
49416;SDS011;35290;39.550;8.786;2022-12-11T12:52:30;7.72;;;1.83;;
49416;SDS011;35290;39.550;8.786;2022-12-11T12:54:59;6.25;;;2.30;;
49416;SDS011;35290;39.550;8.786;2022-12-11T13:00:33;8.35;;;2.83;;
49416;SDS011;35290;39.550;8.786;2022-12-11T13:05:39;14.02;;;2.67;;
49416;SDS011;35290;39.550;8.786;2022-12-11T13:08:07;4.93;;;1.95;;
49416;SDS011;35290;39.550;8.786;2022-12-11T13:10:34;10.05;;;2.42;;
49416;SDS011;35290;39.550;8.786;2022-12-11T13:15:50;4.22;;;1.70;;
49416;SDS011;35290;39.550;8.786;2022-12-11T13:21:01;8.57;;;1.90;;
49416;SDS011;35290;39.550;8.786;2022-12-11T13:23:46;5.43;;;2.10;;
49416;SDS011;35290;39.550;8.786;2022-12-11T13:26:12;12.13;;;2.90;;
49416;SDS011;35290;39.550;8.786;2022-12-11T13:33:42;7.50;;;2.17;;
49416;SDS011;35290;39.550;8.786;2022-12-11T13:38:36;10.02;;;1.95;;
49416;SDS011;35290;39.550;8.786;2022-12-11T13:41:04;9.35;;;2.00;;
49416;SDS011;35290;39.550;8.786;2022-12-11T13:43:34;9.02;;;3.15;;
49416;SDS011;35290;39.550;8.786;2022-12-11T13:46:04;12.57;;;4.25;;
49416;SDS011;35290;39.550;8.786;2022-12-11T13:48:38;18.60;;;7.88;;
49416;SDS011;35290;39.550;8.786;2022-12-11T13:51:14;12.48;;;4.18;;
49416;SDS011;35290;39.550;8.786;2022-12-11T13:53:41;11.52;;;3.58;;
49416;SDS011;35290;39.550;8.786;2022-12-11T13:56:12;12.88;;;4.03;;
49416;SDS011;35290;39.550;8.786;2022-12-11T13:58:41;9.63;;;2.25;;
49416;SDS011;35290;39.550;8.786;2022-12-11T14:03:32;8.27;;;2.20;;
49416;SDS011;35290;39.550;8.786;2022-12-11T14:06:00;12.60;;;3.70;;
49416;SDS011;35290;39.550;8.786;2022-12-11T14:08:28;14.73;;;4.03;;
49416;SDS011;35290;39.550;8.786;2022-12-11T14:10:59;9.70;;;2.90;;
49416;SDS011;35290;39.550;8.786;2022-12-11T14:13:26;10.25;;;2.92;;
49416;SDS011;35290;39.550;8.786;2022-12-11T14:15:55;10.15;;;2.25;;
49416;SDS011;35290;39.550;8.786;2022-12-11T14:18:26;8.05;;;3.25;;
49416;SDS011;35290;39.550;8.786;2022-12-11T14:21:04;9.38;;;3.05;;
49416;SDS011;35290;39.550;8.786;2022-12-11T14:23:34;10.63;;;3.95;;
49416;SDS011;35290;39.550;8.786;2022-12-11T14:26:17;12.05;;;5.20;;
49416;SDS011;35290;39.550;8.786;2022-12-11T14:28:45;15.55;;;4.65;;
49416;SDS011;35290;39.550;8.786;2022-12-11T14:31:12;12.70;;;4.63;;
49416;SDS011;35290;39.550;8.786;2022-12-11T14:33:41;13.55;;;3.67;;
49416;SDS011;35290;39.550;8.786;2022-12-11T14:36:12;16.92;;;4.72;;
49416;SDS011;35290;39.550;8.786;2022-12-11T14:38:51;15.57;;;4.85;;
49416;SDS011;35290;39.550;8.786;2022-12-11T14:41:27;14.13;;;5.88;;
49416;SDS011;35290;39.550;8.786;2022-12-11T14:43:56;15.77;;;4.90;;
49416;SDS011;35290;39.550;8.786;2022-12-11T14:46:33;14.93;;;3.97;;
49416;SDS011;35290;39.550;8.786;2022-12-11T14:49:04;13.98;;;4.57;;
49416;SDS011;35290;39.550;8.786;2022-12-11T14:51:42;14.30;;;4.45;;
49416;SDS011;35290;39.550;8.786;2022-12-11T14:54:14;23.90;;;10.65;;
49416;SDS011;35290;39.550;8.786;2022-12-11T14:56:50;18.80;;;9.13;;
49416;SDS011;35290;39.550;8.786;2022-12-11T14:59:20;21.25;;;7.55;;
49416;SDS011;35290;39.550;8.786;2022-12-11T15:02:16;16.08;;;5.75;;
49416;SDS011;35290;39.550;8.786;2022-12-11T15:04:56;15.80;;;5.75;;
49416;SDS011;35290;39.550;8.786;2022-12-11T15:07:24;16.15;;;5.43;;
49416;SDS011;35290;39.550;8.786;2022-12-11T15:09:50;17.42;;;6.53;;
49416;SDS011;35290;39.550;8.786;2022-12-11T15:12:21;17.17;;;7.20;;
49416;SDS011;35290;39.550;8.786;2022-12-11T15:14:53;21.10;;;6.85;;
49416;SDS011;35290;39.550;8.786;2022-12-11T15:17:22;14.80;;;5.13;;
49416;SDS011;35290;39.550;8.786;2022-12-11T15:19:49;17.23;;;5.75;;
49416;SDS011;35290;39.550;8.786;2022-12-11T15:22:16;24.08;;;8.32;;
49416;SDS011;35290;39.550;8.786;2022-12-11T15:24:43;16.33;;;6.28;;
49416;SDS011;35290;39.550;8.786;2022-12-11T15:29:57;14.73;;;5.53;;
49416;SDS011;35290;39.550;8.786;2022-12-11T15:32:23;19.10;;;6.40;;
49416;SDS011;35290;39.550;8.786;2022-12-11T15:37:29;16.08;;;6.88;;
49416;SDS011;35290;39.550;8.786;2022-12-11T15:39:57;22.48;;;10.77;;
49416;SDS011;35290;39.550;8.786;2022-12-11T15:42:25;26.73;;;13.90;;
49416;SDS011;35290;39.550;8.786;2022-12-11T15:44:51;38.13;;;17.33;;
49416;SDS011;35290;39.550;8.786;2022-12-11T15:47:19;27.42;;;13.98;;
49416;SDS011;35290;39.550;8.786;2022-12-11T15:49:49;26.52;;;13.95;;
49416;SDS011;35290;39.550;8.786;2022-12-11T15:52:18;25.50;;;13.20;;
49416;SDS011;35290;39.550;8.786;2022-12-11T15:54:43;25.70;;;12.23;;
49416;SDS011;35290;39.550;8.786;2022-12-11T15:57:11;25.80;;;11.60;;
49416;SDS011;35290;39.550;8.786;2022-12-11T15:59:39;17.65;;;9.95;;
49416;SDS011;35290;39.550;8.786;2022-12-11T16:02:08;22.50;;;9.65;;
49416;SDS011;35290;39.550;8.786;2022-12-11T16:04:37;23.45;;;9.60;;
49416;SDS011;35290;39.550;8.786;2022-12-11T16:07:04;21.45;;;8.80;;
49416;SDS011;35290;39.550;8.786;2022-12-11T16:09:30;18.15;;;8.88;;
49416;SDS011;35290;39.550;8.786;2022-12-11T16:12:03;18.40;;;9.43;;
49416;SDS011;35290;39.550;8.786;2022-12-11T16:14:29;21.15;;;10.45;;
49416;SDS011;35290;39.550;8.786;2022-12-11T16:16:54;33.55;;;16.65;;
49416;SDS011;35290;39.550;8.786;2022-12-11T16:19:20;45.63;;;24.75;;
49416;SDS011;35290;39.550;8.786;2022-12-11T16:21:45;41.50;;;23.40;;
49416;SDS011;35290;39.550;8.786;2022-12-11T16:24:11;30.27;;;16.92;;
49416;SDS011;35290;39.550;8.786;2022-12-11T16:26:36;45.30;;;27.38;;